sensor_id;sensor_type;location;lat;lon;timestamp;P1;durP1;ratioP1;P2;durP2;ratioP2
25717;SDS011;13574;52.040;5.692;2022-09-29T00:01:08;17.20;;;9.25;;
25717;SDS011;13574;52.040;5.692;2022-09-29T00:03:34;15.65;;;9.52;;
25717;SDS011;13574;52.040;5.692;2022-09-29T00:06:01;10.93;;;8.77;;
25717;SDS011;13574;52.040;5.692;2022-09-29T00:08:27;11.90;;;7.63;;
25717;SDS011;13574;52.040;5.692;2022-09-29T00:10:54;10.25;;;7.13;;
25717;SDS011;13574;52.040;5.692;2022-09-29T00:13:20;7.55;;;6.13;;
25717;SDS011;13574;52.040;5.692;2022-09-29T00:15:56;10.07;;;6.35;;
25717;SDS011;13574;52.040;5.692;2022-09-29T00:18:23;9.82;;;6.25;;
25717;SDS011;13574;52.040;5.692;2022-09-29T00:20:58;7.90;;;5.78;;
25717;SDS011;13574;52.040;5.692;2022-09-29T00:23:26;9.40;;;6.60;;
25717;SDS011;13574;52.040;5.692;2022-09-29T00:26:10;8.20;;;5.75;;
25717;SDS011;13574;52.040;5.692;2022-09-29T00:28:50;8.98;;;6.50;;
25717;SDS011;13574;52.040;5.692;2022-09-29T00:31:20;8.70;;;6.40;;
25717;SDS011;13574;52.040;5.692;2022-09-29T00:33:46;9.57;;;5.95;;
25717;SDS011;13574;52.040;5.692;2022-09-29T00:36:13;8.75;;;6.18;;
25717;SDS011;13574;52.040;5.692;2022-09-29T00:38:41;8.10;;;6.15;;
25717;SDS011;13574;52.040;5.692;2022-09-29T00:41:12;10.65;;;7.10;;
25717;SDS011;13574;52.040;5.692;2022-09-29T00:46:22;9.52;;;6.65;;
25717;SDS011;13574;52.040;5.692;2022-09-29T00:48:53;9.05;;;6.55;;
25717;SDS011;13574;52.040;5.692;2022-09-29T00:51:21;10.13;;;6.55;;
25717;SDS011;13574;52.040;5.692;2022-09-29T00:53:48;8.55;;;6.45;;
25717;SDS011;13574;52.040;5.692;2022-09-29T00:56:14;8.43;;;6.47;;
25717;SDS011;13574;52.040;5.692;2022-09-29T00:58:44;11.70;;;6.40;;
25717;SDS011;13574;52.040;5.692;2022-09-29T01:01:21;9.88;;;6.45;;
25717;SDS011;13574;52.040;5.692;2022-09-29T01:03:51;9.77;;;6.55;;
25717;SDS011;13574;52.040;5.692;2022-09-29T01:06:27;8.82;;;6.90;;
25717;SDS011;13574;52.040;5.692;2022-09-29T01:09:17;9.00;;;6.88;;
25717;SDS011;13574;52.040;5.692;2022-09-29T01:11:48;10.07;;;7.05;;
25717;SDS011;13574;52.040;5.692;2022-09-29T01:14:16;12.57;;;7.68;;
25717;SDS011;13574;52.040;5.692;2022-09-29T01:16:46;8.93;;;7.20;;
25717;SDS011;13574;52.040;5.692;2022-09-29T01:19:55;9.38;;;6.82;;
25717;SDS011;13574;52.040;5.692;2022-09-29T01:36:53;12.05;;;8.75;;
25717;SDS011;13574;52.040;5.692;2022-09-29T01:39:28;14.00;;;10.02;;
25717;SDS011;13574;52.040;5.692;2022-09-29T01:42:07;11.02;;;8.55;;
25717;SDS011;13574;52.040;5.692;2022-09-29T01:47:15;13.45;;;9.05;;
25717;SDS011;13574;52.040;5.692;2022-09-29T01:49:46;12.77;;;9.52;;
25717;SDS011;13574;52.040;5.692;2022-09-29T01:52:20;16.17;;;10.88;;
25717;SDS011;13574;52.040;5.692;2022-09-29T01:54:51;15.65;;;10.10;;
25717;SDS011;13574;52.040;5.692;2022-09-29T01:59:53;14.10;;;10.05;;
25717;SDS011;13574;52.040;5.692;2022-09-29T02:02:44;14.45;;;10.18;;
25717;SDS011;13574;52.040;5.692;2022-09-29T02:06:06;12.93;;;9.93;;
25717;SDS011;13574;52.040;5.692;2022-09-29T02:09:14;14.48;;;10.32;;
25717;SDS011;13574;52.040;5.692;2022-09-29T02:11:16;15.52;;;10.45;;
25717;SDS011;13574;52.040;5.692;2022-09-29T02:13:58;16.40;;;11.30;;
25717;SDS011;13574;52.040;5.692;2022-09-29T02:16:30;14.20;;;10.38;;
25717;SDS011;13574;52.040;5.692;2022-09-29T02:19:02;12.98;;;10.10;;
25717;SDS011;13574;52.040;5.692;2022-09-29T02:21:30;15.40;;;10.95;;
25717;SDS011;13574;52.040;5.692;2022-09-29T02:23:56;13.40;;;10.32;;
25717;SDS011;13574;52.040;5.692;2022-09-29T02:26:22;15.93;;;11.48;;
25717;SDS011;13574;52.040;5.692;2022-09-29T02:28:49;16.50;;;11.50;;
25717;SDS011;13574;52.040;5.692;2022-09-29T02:31:16;16.08;;;10.60;;
25717;SDS011;13574;52.040;5.692;2022-09-29T02:33:42;15.80;;;10.82;;
25717;SDS011;13574;52.040;5.692;2022-09-29T02:39:09;16.35;;;11.02;;
25717;SDS011;13574;52.040;5.692;2022-09-29T02:53:42;13.10;;;9.70;;
25717;SDS011;13574;52.040;5.692;2022-09-29T03:01:46;17.00;;;11.77;;
25717;SDS011;13574;52.040;5.692;2022-09-29T03:04:17;17.90;;;12.07;;
25717;SDS011;13574;52.040;5.692;2022-09-29T03:06:44;13.98;;;11.18;;
25717;SDS011;13574;52.040;5.692;2022-09-29T03:09:10;16.85;;;11.40;;
25717;SDS011;13574;52.040;5.692;2022-09-29T03:11:36;15.70;;;11.35;;
25717;SDS011;13574;52.040;5.692;2022-09-29T03:14:01;12.77;;;8.95;;
25717;SDS011;13574;52.040;5.692;2022-09-29T03:16:28;11.85;;;8.68;;
25717;SDS011;13574;52.040;5.692;2022-09-29T03:18:56;14.40;;;8.82;;
25717;SDS011;13574;52.040;5.692;2022-09-29T03:21:22;9.48;;;8.10;;
25717;SDS011;13574;52.040;5.692;2022-09-29T03:23:47;11.48;;;8.68;;
25717;SDS011;13574;52.040;5.692;2022-09-29T03:26:13;7.40;;;6.15;;
25717;SDS011;13574;52.040;5.692;2022-09-29T03:28:39;8.20;;;5.50;;
25717;SDS011;13574;52.040;5.692;2022-09-29T03:31:05;8.13;;;5.20;;
25717;SDS011;13574;52.040;5.692;2022-09-29T03:33:33;8.88;;;5.65;;
25717;SDS011;13574;52.040;5.692;2022-09-29T03:36:04;11.63;;;6.15;;
25717;SDS011;13574;52.040;5.692;2022-09-29T03:38:32;7.93;;;5.40;;
25717;SDS011;13574;52.040;5.692;2022-09-29T03:40:58;9.73;;;5.55;;
25717;SDS011;13574;52.040;5.692;2022-09-29T03:43:24;9.93;;;5.47;;
25717;SDS011;13574;52.040;5.692;2022-09-29T03:45:51;7.05;;;5.00;;
25717;SDS011;13574;52.040;5.692;2022-09-29T03:48:18;10.95;;;5.93;;
25717;SDS011;13574;52.040;5.692;2022-09-29T03:50:45;8.23;;;4.90;;
25717;SDS011;13574;52.040;5.692;2022-09-29T03:53:12;7.70;;;5.22;;
25717;SDS011;13574;52.040;5.692;2022-09-29T03:55:38;10.68;;;5.10;;
25717;SDS011;13574;52.040;5.692;2022-09-29T03:58:04;7.38;;;5.50;;
25717;SDS011;13574;52.040;5.692;2022-09-29T04:00:30;7.25;;;5.35;;
25717;SDS011;13574;52.040;5.692;2022-09-29T04:02:56;7.90;;;5.93;;
25717;SDS011;13574;52.040;5.692;2022-09-29T04:05:21;10.70;;;5.82;;
25717;SDS011;13574;52.040;5.692;2022-09-29T04:07:47;7.57;;;5.32;;
25717;SDS011;13574;52.040;5.692;2022-09-29T04:10:13;8.73;;;6.63;;
25717;SDS011;13574;52.040;5.692;2022-09-29T04:12:39;10.65;;;5.97;;
25717;SDS011;13574;52.040;5.692;2022-09-29T04:15:05;10.85;;;6.32;;
25717;SDS011;13574;52.040;5.692;2022-09-29T04:17:31;10.73;;;5.72;;
25717;SDS011;13574;52.040;5.692;2022-09-29T04:19:57;8.82;;;6.00;;
25717;SDS011;13574;52.040;5.692;2022-09-29T04:22:23;12.90;;;6.05;;
25717;SDS011;13574;52.040;5.692;2022-09-29T04:24:48;11.63;;;6.00;;
25717;SDS011;13574;52.040;5.692;2022-09-29T04:27:14;9.07;;;5.82;;
25717;SDS011;13574;52.040;5.692;2022-09-29T04:29:41;8.40;;;6.25;;
25717;SDS011;13574;52.040;5.692;2022-09-29T04:32:06;9.45;;;6.18;;
25717;SDS011;13574;52.040;5.692;2022-09-29T04:34:32;8.50;;;6.30;;
25717;SDS011;13574;52.040;5.692;2022-09-29T04:36:58;7.50;;;5.75;;
25717;SDS011;13574;52.040;5.692;2022-09-29T04:39:24;7.43;;;5.65;;
25717;SDS011;13574;52.040;5.692;2022-09-29T04:41:50;9.98;;;5.60;;
25717;SDS011;13574;52.040;5.692;2022-09-29T04:44:16;7.57;;;6.03;;
25717;SDS011;13574;52.040;5.692;2022-09-29T04:46:44;8.43;;;6.10;;
25717;SDS011;13574;52.040;5.692;2022-09-29T04:49:10;7.60;;;5.70;;
25717;SDS011;13574;52.040;5.692;2022-09-29T04:51:35;7.20;;;5.65;;
25717;SDS011;13574;52.040;5.692;2022-09-29T04:54:01;9.15;;;5.47;;
25717;SDS011;13574;52.040;5.692;2022-09-29T04:56:27;9.73;;;5.60;;
25717;SDS011;13574;52.040;5.692;2022-09-29T04:58:55;8.88;;;6.50;;
25717;SDS011;13574;52.040;5.692;2022-09-29T05:01:22;7.47;;;5.65;;
25717;SDS011;13574;52.040;5.692;2022-09-29T05:03:48;8.88;;;5.82;;
25717;SDS011;13574;52.040;5.692;2022-09-29T05:06:13;8.45;;;5.97;;
25717;SDS011;13574;52.040;5.692;2022-09-29T05:08:40;9.77;;;6.20;;
25717;SDS011;13574;52.040;5.692;2022-09-29T05:11:06;11.07;;;5.53;;
25717;SDS011;13574;52.040;5.692;2022-09-29T05:13:32;6.85;;;5.47;;
25717;SDS011;13574;52.040;5.692;2022-09-29T05:16:02;10.15;;;5.82;;
25717;SDS011;13574;52.040;5.692;2022-09-29T05:18:28;8.57;;;6.50;;
25717;SDS011;13574;52.040;5.692;2022-09-29T05:20:54;8.35;;;5.90;;
25717;SDS011;13574;52.040;5.692;2022-09-29T05:23:20;10.93;;;6.53;;
25717;SDS011;13574;52.040;5.692;2022-09-29T05:25:47;8.55;;;5.97;;
25717;SDS011;13574;52.040;5.692;2022-09-29T05:28:14;8.65;;;6.25;;
25717;SDS011;13574;52.040;5.692;2022-09-29T05:30:40;8.23;;;5.80;;
25717;SDS011;13574;52.040;5.692;2022-09-29T05:33:06;9.57;;;6.00;;
25717;SDS011;13574;52.040;5.692;2022-09-29T05:35:32;15.00;;;6.43;;
25717;SDS011;13574;52.040;5.692;2022-09-29T05:37:57;8.65;;;6.72;;
25717;SDS011;13574;52.040;5.692;2022-09-29T05:40:23;9.63;;;7.07;;
25717;SDS011;13574;52.040;5.692;2022-09-29T05:42:49;9.88;;;7.03;;
25717;SDS011;13574;52.040;5.692;2022-09-29T05:45:15;13.70;;;8.30;;
25717;SDS011;13574;52.040;5.692;2022-09-29T05:47:42;14.27;;;9.27;;
25717;SDS011;13574;52.040;5.692;2022-09-29T05:50:09;16.10;;;9.65;;
25717;SDS011;13574;52.040;5.692;2022-09-29T05:52:36;15.25;;;9.52;;
25717;SDS011;13574;52.040;5.692;2022-09-29T05:55:02;19.52;;;10.90;;
25717;SDS011;13574;52.040;5.692;2022-09-29T05:57:28;16.95;;;10.13;;
25717;SDS011;13574;52.040;5.692;2022-09-29T05:59:54;16.23;;;9.90;;
25717;SDS011;13574;52.040;5.692;2022-09-29T06:02:20;14.95;;;8.93;;
25717;SDS011;13574;52.040;5.692;2022-09-29T06:04:46;15.73;;;7.97;;
25717;SDS011;13574;52.040;5.692;2022-09-29T06:07:11;14.60;;;8.55;;
25717;SDS011;13574;52.040;5.692;2022-09-29T06:09:37;12.93;;;8.95;;
25717;SDS011;13574;52.040;5.692;2022-09-29T06:12:03;9.57;;;7.45;;
25717;SDS011;13574;52.040;5.692;2022-09-29T06:14:29;13.05;;;7.07;;
25717;SDS011;13574;52.040;5.692;2022-09-29T06:16:54;11.82;;;7.18;;
25717;SDS011;13574;52.040;5.692;2022-09-29T06:19:25;10.68;;;7.20;;
25717;SDS011;13574;52.040;5.692;2022-09-29T06:21:50;13.05;;;7.70;;
25717;SDS011;13574;52.040;5.692;2022-09-29T06:24:16;15.75;;;8.38;;
25717;SDS011;13574;52.040;5.692;2022-09-29T06:26:42;14.25;;;8.18;;
25717;SDS011;13574;52.040;5.692;2022-09-29T06:29:07;11.25;;;8.32;;
25717;SDS011;13574;52.040;5.692;2022-09-29T06:31:33;11.75;;;8.95;;
25717;SDS011;13574;52.040;5.692;2022-09-29T06:33:59;15.85;;;9.70;;
25717;SDS011;13574;52.040;5.692;2022-09-29T06:36:30;14.05;;;9.27;;
25717;SDS011;13574;52.040;5.692;2022-09-29T06:39:18;13.13;;;9.80;;
25717;SDS011;13574;52.040;5.692;2022-09-29T06:41:43;14.00;;;8.93;;
25717;SDS011;13574;52.040;5.692;2022-09-29T06:44:22;12.65;;;9.38;;
25717;SDS011;13574;52.040;5.692;2022-09-29T06:46:49;14.73;;;9.15;;
25717;SDS011;13574;52.040;5.692;2022-09-29T06:49:16;14.68;;;9.80;;
25717;SDS011;13574;52.040;5.692;2022-09-29T06:51:42;12.43;;;9.20;;
25717;SDS011;13574;52.040;5.692;2022-09-29T06:54:09;13.57;;;9.52;;
25717;SDS011;13574;52.040;5.692;2022-09-29T06:56:35;15.90;;;9.82;;
25717;SDS011;13574;52.040;5.692;2022-09-29T06:59:01;17.17;;;10.57;;
25717;SDS011;13574;52.040;5.692;2022-09-29T07:01:26;14.80;;;11.10;;
25717;SDS011;13574;52.040;5.692;2022-09-29T07:03:52;19.10;;;11.98;;
25717;SDS011;13574;52.040;5.692;2022-09-29T07:06:18;19.48;;;12.02;;
25717;SDS011;13574;52.040;5.692;2022-09-29T07:08:44;18.40;;;12.50;;
25717;SDS011;13574;52.040;5.692;2022-09-29T07:11:09;18.98;;;12.15;;
25717;SDS011;13574;52.040;5.692;2022-09-29T07:13:35;23.38;;;12.27;;
25717;SDS011;13574;52.040;5.692;2022-09-29T07:16:11;19.27;;;12.15;;
25717;SDS011;13574;52.040;5.692;2022-09-29T07:18:38;19.48;;;13.38;;
25717;SDS011;13574;52.040;5.692;2022-09-29T07:21:06;18.80;;;13.40;;
25717;SDS011;13574;52.040;5.692;2022-09-29T07:23:35;20.88;;;12.80;;
25717;SDS011;13574;52.040;5.692;2022-09-29T07:26:02;19.38;;;12.80;;
25717;SDS011;13574;52.040;5.692;2022-09-29T07:28:28;26.35;;;13.85;;
25717;SDS011;13574;52.040;5.692;2022-09-29T07:31:01;21.58;;;14.60;;
25717;SDS011;13574;52.040;5.692;2022-09-29T07:33:31;19.80;;;14.43;;
25717;SDS011;13574;52.040;5.692;2022-09-29T07:35:57;21.63;;;13.07;;
25717;SDS011;13574;52.040;5.692;2022-09-29T07:38:24;20.90;;;13.65;;
25717;SDS011;13574;52.040;5.692;2022-09-29T07:40:51;20.77;;;12.75;;
25717;SDS011;13574;52.040;5.692;2022-09-29T07:43:16;18.42;;;12.48;;
25717;SDS011;13574;52.040;5.692;2022-09-29T07:45:49;23.13;;;15.80;;
25717;SDS011;13574;52.040;5.692;2022-09-29T07:48:15;25.08;;;16.60;;
25717;SDS011;13574;52.040;5.692;2022-09-29T07:50:42;28.05;;;17.58;;
25717;SDS011;13574;52.040;5.692;2022-09-29T07:53:09;22.50;;;15.68;;
25717;SDS011;13574;52.040;5.692;2022-09-29T07:55:35;26.35;;;18.45;;
25717;SDS011;13574;52.040;5.692;2022-09-29T07:58:01;27.92;;;19.98;;
25717;SDS011;13574;52.040;5.692;2022-09-29T08:00:27;27.70;;;19.88;;
25717;SDS011;13574;52.040;5.692;2022-09-29T08:03:04;23.67;;;16.73;;
25717;SDS011;13574;52.040;5.692;2022-09-29T08:05:31;26.05;;;16.85;;
25717;SDS011;13574;52.040;5.692;2022-09-29T08:08:01;26.52;;;18.58;;
25717;SDS011;13574;52.040;5.692;2022-09-29T08:10:28;29.38;;;20.20;;
25717;SDS011;13574;52.040;5.692;2022-09-29T08:12:54;25.48;;;18.48;;
25717;SDS011;13574;52.040;5.692;2022-09-29T08:15:21;25.60;;;18.92;;
25717;SDS011;13574;52.040;5.692;2022-09-29T08:17:47;23.88;;;17.20;;
25717;SDS011;13574;52.040;5.692;2022-09-29T08:20:13;25.38;;;18.77;;
25717;SDS011;13574;52.040;5.692;2022-09-29T08:22:39;28.48;;;19.55;;
25717;SDS011;13574;52.040;5.692;2022-09-29T08:25:05;26.27;;;20.40;;
25717;SDS011;13574;52.040;5.692;2022-09-29T08:27:31;29.95;;;22.50;;
25717;SDS011;13574;52.040;5.692;2022-09-29T08:29:58;28.00;;;21.05;;
25717;SDS011;13574;52.040;5.692;2022-09-29T08:32:24;25.35;;;18.98;;
25717;SDS011;13574;52.040;5.692;2022-09-29T08:34:49;24.92;;;18.63;;
25717;SDS011;13574;52.040;5.692;2022-09-29T08:37:15;31.13;;;23.13;;
25717;SDS011;13574;52.040;5.692;2022-09-29T08:39:42;30.20;;;22.48;;
25717;SDS011;13574;52.040;5.692;2022-09-29T08:42:31;34.03;;;23.63;;
25717;SDS011;13574;52.040;5.692;2022-09-29T08:45:21;28.52;;;21.33;;
25717;SDS011;13574;52.040;5.692;2022-09-29T08:47:54;37.65;;;24.52;;
25717;SDS011;13574;52.040;5.692;2022-09-29T08:50:29;33.53;;;25.27;;
25717;SDS011;13574;52.040;5.692;2022-09-29T08:53:04;35.70;;;25.83;;
25717;SDS011;13574;52.040;5.692;2022-09-29T08:55:34;35.15;;;26.90;;
25717;SDS011;13574;52.040;5.692;2022-09-29T08:58:09;37.60;;;27.92;;
25717;SDS011;13574;52.040;5.692;2022-09-29T09:00:41;43.33;;;30.10;;
25717;SDS011;13574;52.040;5.692;2022-09-29T09:11:46;50.17;;;31.88;;
25717;SDS011;13574;52.040;5.692;2022-09-29T09:16:47;49.88;;;33.25;;
25717;SDS011;13574;52.040;5.692;2022-09-29T09:22:22;51.85;;;33.55;;
25717;SDS011;13574;52.040;5.692;2022-09-29T09:27:58;58.05;;;34.88;;
25717;SDS011;13574;52.040;5.692;2022-09-29T09:30:30;52.80;;;34.63;;
25717;SDS011;13574;52.040;5.692;2022-09-29T09:33:05;51.95;;;35.28;;
25717;SDS011;13574;52.040;5.692;2022-09-29T09:35:47;53.53;;;36.60;;
25717;SDS011;13574;52.040;5.692;2022-09-29T09:38:24;54.58;;;36.15;;
25717;SDS011;13574;52.040;5.692;2022-09-29T09:40:58;59.22;;;36.65;;
25717;SDS011;13574;52.040;5.692;2022-09-29T09:43:31;56.92;;;36.28;;
25717;SDS011;13574;52.040;5.692;2022-09-29T09:46:25;54.22;;;35.63;;
25717;SDS011;13574;52.040;5.692;2022-09-29T09:51:29;58.10;;;37.80;;
25717;SDS011;13574;52.040;5.692;2022-09-29T09:54:02;58.17;;;36.33;;
25717;SDS011;13574;52.040;5.692;2022-09-29T09:56:56;57.45;;;36.22;;
25717;SDS011;13574;52.040;5.692;2022-09-29T09:59:38;60.17;;;37.78;;
25717;SDS011;13574;52.040;5.692;2022-09-29T10:02:17;51.40;;;33.92;;
25717;SDS011;13574;52.040;5.692;2022-09-29T10:04:47;51.97;;;33.83;;
25717;SDS011;13574;52.040;5.692;2022-09-29T10:07:16;50.35;;;32.85;;
25717;SDS011;13574;52.040;5.692;2022-09-29T10:09:43;51.92;;;33.58;;
25717;SDS011;13574;52.040;5.692;2022-09-29T10:12:30;50.80;;;33.63;;
25717;SDS011;13574;52.040;5.692;2022-09-29T10:15:00;48.97;;;32.42;;
25717;SDS011;13574;52.040;5.692;2022-09-29T10:17:36;47.25;;;29.52;;
25717;SDS011;13574;52.040;5.692;2022-09-29T10:20:06;48.83;;;29.80;;
25717;SDS011;13574;52.040;5.692;2022-09-29T10:22:33;46.92;;;30.77;;
25717;SDS011;13574;52.040;5.692;2022-09-29T10:25:16;46.60;;;29.90;;
25717;SDS011;13574;52.040;5.692;2022-09-29T10:27:44;42.20;;;26.45;;
25717;SDS011;13574;52.040;5.692;2022-09-29T10:30:20;45.57;;;28.20;;
25717;SDS011;13574;52.040;5.692;2022-09-29T10:32:48;38.03;;;24.67;;
25717;SDS011;13574;52.040;5.692;2022-09-29T10:37:56;36.97;;;24.17;;
25717;SDS011;13574;52.040;5.692;2022-09-29T10:41:02;36.45;;;23.08;;
25717;SDS011;13574;52.040;5.692;2022-09-29T10:43:38;35.65;;;23.10;;
25717;SDS011;13574;52.040;5.692;2022-09-29T10:46:31;39.33;;;24.02;;
25717;SDS011;13574;52.040;5.692;2022-09-29T10:49:20;36.63;;;23.90;;
25717;SDS011;13574;52.040;5.692;2022-09-29T10:54:17;34.00;;;23.17;;
25717;SDS011;13574;52.040;5.692;2022-09-29T10:56:46;33.10;;;21.85;;
25717;SDS011;13574;52.040;5.692;2022-09-29T10:59:13;17.52;;;12.27;;
25717;SDS011;13574;52.040;5.692;2022-09-29T11:01:45;18.08;;;12.57;;
25717;SDS011;13574;52.040;5.692;2022-09-29T11:04:16;20.98;;;14.80;;
25717;SDS011;13574;52.040;5.692;2022-09-29T11:06:52;27.25;;;19.98;;
25717;SDS011;13574;52.040;5.692;2022-09-29T11:14:25;27.08;;;20.15;;
25717;SDS011;13574;52.040;5.692;2022-09-29T11:16:55;21.00;;;15.88;;
25717;SDS011;13574;52.040;5.692;2022-09-29T11:19:22;17.33;;;13.18;;
25717;SDS011;13574;52.040;5.692;2022-09-29T11:22:05;17.55;;;13.18;;
25717;SDS011;13574;52.040;5.692;2022-09-29T11:27:40;21.35;;;15.50;;
25717;SDS011;13574;52.040;5.692;2022-09-29T11:30:23;20.63;;;15.85;;
25717;SDS011;13574;52.040;5.692;2022-09-29T11:33:03;24.00;;;16.80;;
25717;SDS011;13574;52.040;5.692;2022-09-29T11:35:53;22.75;;;15.80;;
25717;SDS011;13574;52.040;5.692;2022-09-29T11:47:19;22.02;;;15.20;;
25717;SDS011;13574;52.040;5.692;2022-09-29T12:03:57;14.63;;;9.85;;
25717;SDS011;13574;52.040;5.692;2022-09-29T12:12:11;11.13;;;8.85;;
25717;SDS011;13574;52.040;5.692;2022-09-29T12:14:59;14.50;;;8.95;;
25717;SDS011;13574;52.040;5.692;2022-09-29T12:17:41;11.25;;;9.35;;
25717;SDS011;13574;52.040;5.692;2022-09-29T12:20:33;10.10;;;8.88;;
25717;SDS011;13574;52.040;5.692;2022-09-29T12:23:02;10.48;;;8.63;;
25717;SDS011;13574;52.040;5.692;2022-09-29T12:25:34;10.60;;;8.95;;
25717;SDS011;13574;52.040;5.692;2022-09-29T12:31:04;9.18;;;7.53;;
25717;SDS011;13574;52.040;5.692;2022-09-29T12:33:43;7.05;;;5.78;;
25717;SDS011;13574;52.040;5.692;2022-09-29T12:42:09;7.78;;;5.40;;
25717;SDS011;13574;52.040;5.692;2022-09-29T12:47:27;10.18;;;7.80;;
25717;SDS011;13574;52.040;5.692;2022-09-29T12:50:25;9.90;;;7.88;;
25717;SDS011;13574;52.040;5.692;2022-09-29T12:52:59;9.18;;;7.65;;
25717;SDS011;13574;52.040;5.692;2022-09-29T12:55:36;8.23;;;7.10;;
25717;SDS011;13574;52.040;5.692;2022-09-29T12:58:40;9.45;;;6.90;;
25717;SDS011;13574;52.040;5.692;2022-09-29T13:12:22;4.63;;;2.60;;
25717;SDS011;13574;52.040;5.692;2022-09-29T13:26:47;5.95;;;4.47;;
25717;SDS011;13574;52.040;5.692;2022-09-29T13:29:21;6.60;;;3.05;;
25717;SDS011;13574;52.040;5.692;2022-09-29T13:31:53;3.15;;;2.70;;
25717;SDS011;13574;52.040;5.692;2022-09-29T13:34:33;5.03;;;2.50;;
25717;SDS011;13574;52.040;5.692;2022-09-29T13:37:06;2.70;;;2.10;;
25717;SDS011;13574;52.040;5.692;2022-09-29T13:39:35;4.70;;;2.65;;
25717;SDS011;13574;52.040;5.692;2022-09-29T13:48:01;21.17;;;15.05;;
25717;SDS011;13574;52.040;5.692;2022-09-29T13:50:48;16.80;;;14.98;;
25717;SDS011;13574;52.040;5.692;2022-09-29T14:01:12;16.67;;;13.38;;
25717;SDS011;13574;52.040;5.692;2022-09-29T14:03:55;14.70;;;13.00;;
25717;SDS011;13574;52.040;5.692;2022-09-29T14:06:23;14.85;;;13.10;;
25717;SDS011;13574;52.040;5.692;2022-09-29T14:11:38;17.40;;;15.55;;
25717;SDS011;13574;52.040;5.692;2022-09-29T14:19:07;37.53;;;28.48;;
25717;SDS011;13574;52.040;5.692;2022-09-29T14:38:17;14.77;;;11.35;;
25717;SDS011;13574;52.040;5.692;2022-09-29T14:52:27;9.05;;;7.97;;
25717;SDS011;13574;52.040;5.692;2022-09-29T15:03:11;8.85;;;7.07;;
25717;SDS011;13574;52.040;5.692;2022-09-29T15:06:17;8.30;;;7.03;;
25717;SDS011;13574;52.040;5.692;2022-09-29T15:08:58;9.70;;;7.07;;
25717;SDS011;13574;52.040;5.692;2022-09-29T15:13:53;9.00;;;6.80;;
25717;SDS011;13574;52.040;5.692;2022-09-29T15:16:31;9.15;;;7.20;;
25717;SDS011;13574;52.040;5.692;2022-09-29T15:22:00;8.95;;;6.68;;
25717;SDS011;13574;52.040;5.692;2022-09-29T15:27:14;7.63;;;6.35;;
25717;SDS011;13574;52.040;5.692;2022-09-29T15:29:44;7.63;;;6.35;;
25717;SDS011;13574;52.040;5.692;2022-09-29T15:32:25;7.25;;;5.93;;
25717;SDS011;13574;52.040;5.692;2022-09-29T15:34:58;7.00;;;5.63;;
25717;SDS011;13574;52.040;5.692;2022-09-29T15:37:29;9.88;;;7.05;;
25717;SDS011;13574;52.040;5.692;2022-09-29T15:40:14;7.35;;;6.55;;
25717;SDS011;13574;52.040;5.692;2022-09-29T15:42:41;7.47;;;6.60;;
25717;SDS011;13574;52.040;5.692;2022-09-29T15:45:31;8.27;;;6.80;;
25717;SDS011;13574;52.040;5.692;2022-09-29T15:47:57;10.52;;;6.97;;
25717;SDS011;13574;52.040;5.692;2022-09-29T15:50:26;7.72;;;6.63;;
25717;SDS011;13574;52.040;5.692;2022-09-29T15:52:56;9.75;;;7.10;;
25717;SDS011;13574;52.040;5.692;2022-09-29T15:55:26;9.18;;;7.05;;
25717;SDS011;13574;52.040;5.692;2022-09-29T15:57:53;9.85;;;7.55;;
25717;SDS011;13574;52.040;5.692;2022-09-29T16:05:27;8.75;;;7.53;;
25717;SDS011;13574;52.040;5.692;2022-09-29T16:10:33;10.63;;;7.47;;
25717;SDS011;13574;52.040;5.692;2022-09-29T16:13:04;10.45;;;7.22;;
25717;SDS011;13574;52.040;5.692;2022-09-29T16:15:43;8.45;;;7.53;;
25717;SDS011;13574;52.040;5.692;2022-09-29T16:20:39;10.38;;;7.30;;
25717;SDS011;13574;52.040;5.692;2022-09-29T16:23:08;9.95;;;7.82;;
25717;SDS011;13574;52.040;5.692;2022-09-29T16:25:40;12.48;;;7.82;;
25717;SDS011;13574;52.040;5.692;2022-09-29T16:28:09;10.38;;;7.95;;
25717;SDS011;13574;52.040;5.692;2022-09-29T16:31:02;12.55;;;9.27;;
25717;SDS011;13574;52.040;5.692;2022-09-29T16:33:31;15.90;;;9.15;;
25717;SDS011;13574;52.040;5.692;2022-09-29T16:36:02;12.20;;;8.73;;
25717;SDS011;13574;52.040;5.692;2022-09-29T16:38:44;12.80;;;8.98;;
25717;SDS011;13574;52.040;5.692;2022-09-29T16:41:33;13.10;;;8.88;;
25717;SDS011;13574;52.040;5.692;2022-09-29T16:46:51;14.00;;;9.07;;
25717;SDS011;13574;52.040;5.692;2022-09-29T16:49:27;12.95;;;8.45;;
25717;SDS011;13574;52.040;5.692;2022-09-29T16:51:58;12.57;;;8.77;;
25717;SDS011;13574;52.040;5.692;2022-09-29T16:54:43;12.30;;;8.40;;
25717;SDS011;13574;52.040;5.692;2022-09-29T16:57:19;12.48;;;7.93;;
25717;SDS011;13574;52.040;5.692;2022-09-29T17:00:10;12.60;;;8.23;;
25717;SDS011;13574;52.040;5.692;2022-09-29T17:02:37;11.23;;;7.28;;
25717;SDS011;13574;52.040;5.692;2022-09-29T17:05:02;10.80;;;7.30;;
25717;SDS011;13574;52.040;5.692;2022-09-29T17:07:29;11.27;;;7.45;;
25717;SDS011;13574;52.040;5.692;2022-09-29T17:09:57;11.90;;;7.90;;
25717;SDS011;13574;52.040;5.692;2022-09-29T17:12:24;14.13;;;8.68;;
25717;SDS011;13574;52.040;5.692;2022-09-29T17:14:51;16.15;;;11.40;;
25717;SDS011;13574;52.040;5.692;2022-09-29T17:17:19;17.45;;;11.32;;
25717;SDS011;13574;52.040;5.692;2022-09-29T17:19:47;16.25;;;10.60;;
25717;SDS011;13574;52.040;5.692;2022-09-29T17:22:19;16.73;;;10.30;;
25717;SDS011;13574;52.040;5.692;2022-09-29T17:24:54;15.52;;;10.38;;
25717;SDS011;13574;52.040;5.692;2022-09-29T17:27:20;16.90;;;11.45;;
25717;SDS011;13574;52.040;5.692;2022-09-29T17:30:05;15.63;;;11.95;;
25717;SDS011;13574;52.040;5.692;2022-09-29T17:32:32;14.75;;;11.20;;
25717;SDS011;13574;52.040;5.692;2022-09-29T17:34:58;16.50;;;10.18;;
25717;SDS011;13574;52.040;5.692;2022-09-29T17:37:24;14.20;;;8.48;;
25717;SDS011;13574;52.040;5.692;2022-09-29T17:39:50;17.08;;;10.18;;
25717;SDS011;13574;52.040;5.692;2022-09-29T17:42:16;13.32;;;8.65;;
25717;SDS011;13574;52.040;5.692;2022-09-29T17:44:42;13.98;;;9.95;;
25717;SDS011;13574;52.040;5.692;2022-09-29T17:47:14;14.23;;;8.85;;
25717;SDS011;13574;52.040;5.692;2022-09-29T17:49:44;16.65;;;9.88;;
25717;SDS011;13574;52.040;5.692;2022-09-29T17:52:14;13.32;;;8.73;;
25717;SDS011;13574;52.040;5.692;2022-09-29T17:54:40;12.52;;;8.82;;
25717;SDS011;13574;52.040;5.692;2022-09-29T17:57:06;12.27;;;9.02;;
25717;SDS011;13574;52.040;5.692;2022-09-29T17:59:42;15.05;;;8.50;;
25717;SDS011;13574;52.040;5.692;2022-09-29T18:02:09;10.88;;;7.47;;
25717;SDS011;13574;52.040;5.692;2022-09-29T18:04:37;12.68;;;8.13;;
25717;SDS011;13574;52.040;5.692;2022-09-29T18:07:05;13.23;;;8.70;;
25717;SDS011;13574;52.040;5.692;2022-09-29T18:09:31;13.27;;;9.02;;
25717;SDS011;13574;52.040;5.692;2022-09-29T18:11:56;13.38;;;9.68;;
25717;SDS011;13574;52.040;5.692;2022-09-29T18:14:22;13.57;;;10.48;;
25717;SDS011;13574;52.040;5.692;2022-09-29T18:16:48;13.57;;;11.45;;
25717;SDS011;13574;52.040;5.692;2022-09-29T18:19:14;13.52;;;10.30;;
25717;SDS011;13574;52.040;5.692;2022-09-29T18:21:43;12.95;;;9.02;;
25717;SDS011;13574;52.040;5.692;2022-09-29T18:24:09;12.13;;;8.25;;
25717;SDS011;13574;52.040;5.692;2022-09-29T18:26:35;10.15;;;7.85;;
25717;SDS011;13574;52.040;5.692;2022-09-29T18:29:07;14.38;;;10.75;;
25717;SDS011;13574;52.040;5.692;2022-09-29T18:31:39;14.40;;;10.80;;
25717;SDS011;13574;52.040;5.692;2022-09-29T18:34:05;10.57;;;6.90;;